KGIF/GIF METAR and TAF weather

Enter ICAO airport designator
Station Type Date Time Source
KGIF METAR 2021/10/19 07:53 UTC NOAA

KGIF 190753Z AUTO 04005KT 10SM SCT045 20/15 A3011 RMK AO2 SLP194 T02000150


Station Type Date Time Source
KGIF Decoded METAR 2021/10/19 07:53 UTC NOAA

WINTER HAVENS GILBERT AIRPORT , FL, United States (KGIF) 28-04N 81-45W 43M
Oct 19, 2021 - 03:53 AM EDT / 2021.10.19 0753 UTC
Wind: from the NE (040 degrees) at 6 MPH (5 KT):0
Visibility: 10 mile(s):0
Sky conditions: partly cloudy
Temperature: 68.0 F (20.0 C)
Dew Point: 59.0 F (15.0 C)
Relative Humidity: 72%
Pressure (altimeter): 30.11 in. Hg (1019 hPa)
ob: KGIF 190753Z AUTO 04005KT 10SM SCT045 20/15 A3011 RMK AO2 SLP194 T02000150
cycle: 8

Station Type Date Time Source
KGIF TAF UTC NOAA

Error!

Example: see airport list